Time;durP1;ratioP1;P1;durP2;ratioP2;P2;SDS_P1;SDS_P2;PMS_P1;PMS_P2;Temp;Humidity;BMP_temperature;BMP_pressure;BME280_temperature;BME280_humidity;BME280_pressure;Samples;Min_cycle;Max_cycle;Signal;HPM_P1;HPM_P2
2023/12/29 00:01:44;;;;;;;1.87;1.10;;;;;;;10.72;53.22;100398.47;4996044;28;97334;-50
2023/12/29 00:04:09;;;;;;;4.37;1.20;;;;;;;10.76;53.48;100399.69;4996607;28;109329;-50
2023/12/29 00:06:39;;;;;;;2.50;0.60;;;;;;;10.79;53.20;100406.22;4997148;28;97004;-50
2023/12/29 00:09:04;;;;;;;2.50;0.90;;;;;;;10.75;53.29;100409.28;4998167;28;97143;-50
2023/12/29 00:11:29;;;;;;;3.07;0.93;;;;;;;10.73;53.05;100411.81;4998233;28;97283;-50
2023/12/29 00:13:55;;;;;;;4.77;0.90;;;;;;;10.74;53.30;100401.50;4998424;28;102035;-50
2023/12/29 00:16:20;;;;;;;2.13;0.93;;;;;;;10.76;53.33;100399.69;4998218;28;99102;-49
2023/12/29 00:18:45;;;;;;;2.03;1.13;;;;;;;10.81;53.27;100395.38;4996234;28;96922;-50
2023/12/29 00:21:11;;;;;;;3.63;0.93;;;;;;;10.78;53.09;100390.88;4996366;28;97363;-50
2023/12/29 00:23:36;;;;;;;1.00;0.90;;;;;;;10.74;53.26;100387.66;4995158;28;97888;-50
2023/12/29 00:26:01;;;;;;;2.50;1.03;;;;;;;10.75;53.31;100389.91;4999850;28;96562;-50
2023/12/29 00:28:27;;;;;;;2.57;0.90;;;;;;;10.77;53.18;100384.59;5001716;28;97890;-50
2023/12/29 00:30:52;;;;;;;3.30;1.13;;;;;;;10.72;53.27;100371.56;5000636;28;97294;-50
2023/12/29 00:33:17;;;;;;;0.90;0.50;;;;;;;10.74;53.24;100373.84;4994609;28;108449;-50
2023/12/29 00:35:42;;;;;;;3.27;0.77;;;;;;;10.75;53.25;100369.78;4994067;28;97019;-50
2023/12/29 00:38:08;;;;;;;3.20;1.50;;;;;;;10.72;53.25;100365.28;4995434;28;96808;-50
2023/12/29 00:40:33;;;;;;;1.37;0.80;;;;;;;10.72;53.38;100370.81;4997368;28;105243;-49
2023/12/29 00:43:01;;;;;;;1.50;1.20;;;;;;;10.73;53.34;100356.47;4995088;28;97405;-50
2023/12/29 00:45:32;;;;;;;3.80;1.03;;;;;;;10.74;53.33;100357.22;4995243;28;96675;-51
2023/12/29 00:47:58;;;;;;;2.93;0.80;;;;;;;10.75;53.32;100358.72;4995464;28;97272;-50
2023/12/29 00:50:23;;;;;;;3.63;1.20;;;;;;;10.75;53.43;100359.47;4996682;28;100139;-50
2023/12/29 00:52:48;;;;;;;3.33;1.00;;;;;;;10.76;53.25;100360.22;4994925;28;104267;-50
2023/12/29 00:55:14;;;;;;;2.73;1.43;;;;;;;10.75;53.30;100365.00;4996164;28;99428;-50
2023/12/29 00:57:39;;;;;;;3.73;0.87;;;;;;;10.76;53.18;100352.63;4996133;28;97233;-50
2023/12/29 01:00:05;;;;;;;1.53;0.87;;;;;;;10.73;53.28;100353.72;4994907;28;108842;-50
2023/12/29 01:02:31;;;;;;;2.97;0.80;;;;;;;10.70;53.30;100356.75;4994707;28;97827;-50
2023/12/29 01:04:56;;;;;;;2.00;1.10;;;;;;;10.73;53.42;100347.41;4997181;28;97167;-50
2023/12/29 01:07:21;;;;;;;2.53;1.03;;;;;;;10.74;53.45;100354.47;4997360;28;97270;-50
2023/12/29 01:09:47;;;;;;;3.10;0.90;;;;;;;10.75;53.48;100347.63;4995967;28;105633;-50
2023/12/29 01:12:12;;;;;;;2.10;0.83;;;;;;;10.77;53.38;100350.63;4996130;28;109424;-49
2023/12/29 01:14:37;;;;;;;1.60;1.10;;;;;;;10.76;53.46;100343.63;4997651;28;96869;-50
2023/12/29 01:17:03;;;;;;;2.50;1.00;;;;;;;10.75;53.37;100348.41;4996070;28;97020;-50
2023/12/29 01:19:28;;;;;;;1.37;0.70;;;;;;;10.79;53.56;100353.66;4996227;28;97118;-50
2023/12/29 01:21:54;;;;;;;2.30;0.80;;;;;;;10.83;53.41;100354.09;4995063;28;97181;-50
2023/12/29 01:24:19;;;;;;;2.30;0.87;;;;;;;10.83;53.44;100369.97;4994522;28;99578;-50
2023/12/29 01:26:44;;;;;;;2.40;1.47;;;;;;;10.80;53.36;100366.22;4995898;28;97160;-50
2023/12/29 01:29:10;;;;;;;3.97;0.87;;;;;;;10.76;53.76;100365.75;4994180;28;97144;-50
2023/12/29 01:31:35;;;;;;;1.83;1.03;;;;;;;10.78;54.06;100369.47;4990570;28;98638;-50
2023/12/29 01:34:00;;;;;;;2.07;1.03;;;;;;;10.71;54.34;100355.50;4991221;28;97007;-50
2023/12/29 01:36:26;;;;;;;5.80;0.90;;;;;;;10.64;54.61;100353.31;4989880;28;97071;-50
2023/12/29 01:38:51;;;;;;;3.33;0.93;;;;;;;10.59;54.83;100351.38;4992111;28;97667;-50
2023/12/29 01:41:20;;;;;;;5.97;1.03;;;;;;;10.55;55.11;100350.94;4993846;28;97143;-50
2023/12/29 01:44:01;;;;;;;5.23;1.10;;;;;;;10.53;55.53;100356.25;4993326;28;97111;-50
2023/12/29 01:46:28;;;;;;;3.70;0.90;;;;;;;10.47;55.24;100350.03;4994897;28;98309;-50
2023/12/29 01:48:54;;;;;;;5.10;0.97;;;;;;;10.47;55.50;100350.78;4994867;28;97521;-50
2023/12/29 01:51:23;;;;;;;4.43;1.07;;;;;;;10.45;55.44;100353.34;4995481;28;97155;-50
2023/12/29 01:53:50;;;;;;;2.77;1.37;;;;;;;10.43;55.62;100346.84;4994731;28;97235;-50
2023/12/29 01:56:16;;;;;;;1.40;0.77;;;;;;;10.36;55.86;100339.88;4996722;28;97139;-50
2023/12/29 01:58:43;;;;;;;2.40;0.90;;;;;;;10.34;56.06;100336.88;4997675;28;97928;-50
2023/12/29 02:01:09;;;;;;;2.40;0.70;;;;;;;10.34;56.15;100323.06;4995724;28;97071;-50
2023/12/29 02:03:35;;;;;;;1.80;0.83;;;;;;;10.28;56.33;100316.84;4993872;28;96758;-50
2023/12/29 02:06:01;;;;;;;2.50;0.70;;;;;;;10.27;56.68;100322.91;4994667;28;97294;-50
2023/12/29 02:08:27;;;;;;;7.03;1.13;;;;;;;10.20;56.76;100320.72;4994019;28;96692;-51
2023/12/29 02:10:52;;;;;;;4.33;0.93;;;;;;;10.12;57.01;100304.00;4997519;28;98291;-51
2023/12/29 02:13:17;;;;;;;2.30;0.87;;;;;;;10.09;57.02;100310.56;4997547;28;97026;-51
2023/12/29 02:15:43;;;;;;;4.10;0.90;;;;;;;10.07;57.45;100301.28;4993037;28;97089;-51
2023/12/29 02:18:14;;;;;;;2.20;0.83;;;;;;;10.06;57.66;100299.81;4994719;28;97757;-51
2023/12/29 02:20:41;;;;;;;1.90;0.57;;;;;;;10.03;57.59;100291.28;4997241;28;97221;-51
2023/12/29 02:23:06;;;;;;;2.60;0.77;;;;;;;10.01;57.59;100293.81;4994298;28;96977;-51
2023/12/29 02:25:32;;;;;;;3.87;0.90;;;;;;;10.02;57.64;100289.78;4995148;28;97189;-50
2023/12/29 02:28:18;;;;;;;4.10;1.37;;;;;;;10.04;58.25;100298.28;4996865;28;97479;-51
2023/12/29 02:30:54;;;;;;;2.37;0.70;;;;;;;10.02;58.15;100277.97;4990764;28;97671;-50
2023/12/29 02:33:21;;;;;;;2.43;0.90;;;;;;;10.03;57.67;100277.47;4991951;28;96915;-51
2023/12/29 02:35:49;;;;;;;6.43;0.70;;;;;;;10.00;57.96;100275.72;4993275;28;96901;-51
2023/12/29 02:38:15;;;;;;;2.93;0.90;;;;;;;9.98;57.71;100267.22;4994449;28;97042;-50
2023/12/29 02:40:40;;;;;;;4.50;0.90;;;;;;;9.94;57.93;100268.78;4994517;28;96838;-50
2023/12/29 02:43:05;;;;;;;1.50;0.50;;;;;;;9.95;58.01;100259.22;4991799;28;97076;-51
2023/12/29 02:45:31;;;;;;;1.77;0.77;;;;;;;9.96;57.99;100242.13;4996991;28;97185;-50
2023/12/29 02:47:57;;;;;;;1.47;0.90;;;;;;;9.96;58.20;100253.19;4992218;28;99213;-50
2023/12/29 02:50:22;;;;;;;2.10;0.63;;;;;;;9.96;58.10;100244.88;4995007;28;98276;-50
2023/12/29 02:52:48;;;;;;;4.40;0.70;;;;;;;9.94;58.19;100250.19;4996754;28;97322;-51
2023/12/29 02:55:13;;;;;;;1.20;0.80;;;;;;;9.94;58.27;100239.13;4994905;28;97388;-50
2023/12/29 02:57:38;;;;;;;5.07;1.30;;;;;;;9.96;58.18;100231.06;4995427;28;108661;-51
2023/12/29 03:00:05;;;;;;;1.60;0.77;;;;;;;9.93;58.28;100247.97;4996177;28;100090;-51
2023/12/29 03:02:31;;;;;;;2.00;0.90;;;;;;;9.94;58.19;100252.19;4997001;28;97014;-51
2023/12/29 03:04:56;;;;;;;4.77;1.53;;;;;;;9.95;58.27;100246.13;4997248;28;96903;-51
2023/12/29 03:07:21;;;;;;;5.53;1.33;;;;;;;9.94;58.35;100217.03;4994313;28;98880;-50
2023/12/29 03:09:47;;;;;;;1.37;1.00;;;;;;;9.93;58.29;100215.53;4992849;28;96852;-50
2023/12/29 03:12:12;;;;;;;3.27;0.97;;;;;;;9.93;58.37;100215.53;4993878;28;96780;-51
2023/12/29 03:14:38;;;;;;;1.20;0.50;;;;;;;9.87;58.58;100220.38;4994730;28;97174;-51
2023/12/29 03:17:03;;;;;;;2.47;1.00;;;;;;;9.81;58.83;100213.44;4994315;28;97260;-50
2023/12/29 03:19:29;;;;;;;3.87;0.80;;;;;;;9.76;59.06;100203.94;4996327;28;97363;-51
2023/12/29 03:21:54;;;;;;;1.07;0.63;;;;;;;9.76;59.05;100192.91;4991481;28;97092;-51
2023/12/29 03:24:20;;;;;;;3.67;0.90;;;;;;;9.80;59.04;100196.09;4993600;28;96833;-51
2023/12/29 03:26:45;;;;;;;1.30;0.70;;;;;;;9.82;59.07;100196.31;4996889;28;96924;-51
2023/12/29 03:29:11;;;;;;;2.33;0.93;;;;;;;9.80;59.10;100200.91;4997214;28;97181;-52
2023/12/29 03:31:36;;;;;;;2.67;0.80;;;;;;;9.80;59.14;100207.16;4999918;28;97199;-51
2023/12/29 03:34:02;;;;;;;1.00;0.70;;;;;;;9.84;59.13;100196.56;4996864;28;96809;-52
2023/12/29 03:36:27;;;;;;;1.33;0.60;;;;;;;9.87;59.09;100190.00;4998806;28;97033;-51
2023/12/29 03:38:52;;;;;;;2.30;0.70;;;;;;;9.88;59.20;100190.75;4997031;28;96706;-51
2023/12/29 03:41:18;;;;;;;0.73;0.60;;;;;;;9.89;59.19;100192.97;5000527;28;96650;-51
2023/12/29 03:43:44;;;;;;;3.73;0.80;;;;;;;9.87;59.09;100194.75;4997097;28;96593;-51
2023/12/29 03:46:22;;;;;;;1.73;0.80;;;;;;;9.87;59.55;100197.53;4998021;28;97282;-51
2023/12/29 03:48:48;;;;;;;2.80;1.23;;;;;;;9.92;59.21;100194.69;4997567;28;98783;-51
2023/12/29 03:51:15;;;;;;;1.73;0.70;;;;;;;9.94;59.18;100185.88;4996607;28;96881;-51
2023/12/29 03:53:40;;;;;;;0.80;0.73;;;;;;;9.94;59.19;100172.81;4996278;28;96967;-51
2023/12/29 03:56:18;;;;;;;1.47;0.60;;;;;;;9.97;59.22;100182.84;4996082;28;97456;-51
2023/12/29 03:58:45;;;;;;;2.00;1.00;;;;;;;9.99;59.14;100185.06;5001248;28;97216;-51
2023/12/29 04:01:11;;;;;;;1.63;0.70;;;;;;;10.02;59.05;100179.22;4997745;28;97626;-51
2023/12/29 04:03:37;;;;;;;1.50;0.70;;;;;;;10.02;58.93;100181.25;4996662;28;97159;-52
2023/12/29 04:06:03;;;;;;;2.00;1.23;;;;;;;10.02;58.87;100181.25;4996965;28;97122;-51
2023/12/29 04:08:28;;;;;;;1.43;0.57;;;;;;;10.06;58.92;100183.72;4999498;28;97193;-51
2023/12/29 04:10:54;;;;;;;2.73;0.97;;;;;;;10.06;58.98;100180.97;4999824;28;97124;-51
2023/12/29 04:13:19;;;;;;;1.60;0.60;;;;;;;10.10;58.93;100186.94;4997057;28;100356;-51
2023/12/29 04:15:44;;;;;;;1.40;0.67;;;;;;;10.13;58.85;100199.72;4995082;28;97208;-50
2023/12/29 04:18:10;;;;;;;1.27;0.60;;;;;;;10.10;58.93;100215.31;4994332;28;97155;-51
2023/12/29 04:20:35;;;;;;;3.33;0.67;;;;;;;10.03;59.01;100202.09;4992915;28;96923;-51
2023/12/29 04:23:00;;;;;;;7.20;0.97;;;;;;;10.01;59.36;100204.63;4995302;28;97060;-51
2023/12/29 04:25:26;;;;;;;0.80;0.50;;;;;;;9.96;59.32;100214.50;4997236;28;108619;-52
2023/12/29 04:27:51;;;;;;;1.20;0.60;;;;;;;9.93;59.61;100218.28;4996321;28;98337;-51
2023/12/29 04:30:17;;;;;;;0.80;0.60;;;;;;;9.89;59.75;100209.56;4995521;28;97419;-51
2023/12/29 04:32:42;;;;;;;1.70;0.60;;;;;;;9.86;59.92;100204.34;4995773;28;96756;-51
2023/12/29 04:35:10;;;;;;;2.07;0.73;;;;;;;9.83;59.79;100200.59;4989359;28;97485;-50
2023/12/29 04:37:35;;;;;;;3.73;0.67;;;;;;;9.75;60.21;100210.75;4995130;28;97465;-51
2023/12/29 04:40:00;;;;;;;2.20;0.70;;;;;;;9.73;60.30;100207.00;4997313;28;96987;-51
2023/12/29 04:42:25;;;;;;;0.90;0.60;;;;;;;9.74;60.17;100209.25;4993022;28;99614;-52
2023/12/29 04:44:51;;;;;;;5.53;0.90;;;;;;;9.73;60.44;100196.72;4996353;28;98352;-51
2023/12/29 04:47:16;;;;;;;1.47;0.90;;;;;;;9.70;60.42;100194.22;4992159;28;107180;-51
2023/12/29 04:49:42;;;;;;;0.70;0.60;;;;;;;9.66;60.35;100186.25;4994908;28;97175;-52
2023/12/29 04:52:07;;;;;;;2.23;0.83;;;;;;;9.61;60.59;100189.81;4992205;28;97396;-51
2023/12/29 04:54:32;;;;;;;0.70;0.60;;;;;;;9.62;60.58;100205.13;4992594;28;98469;-51
2023/12/29 04:56:58;;;;;;;2.73;0.80;;;;;;;9.60;60.60;100199.38;4993834;28;97275;-51
2023/12/29 04:59:23;;;;;;;1.13;0.70;;;;;;;9.57;60.69;100205.94;4994784;28;97035;-51
2023/12/29 05:01:48;;;;;;;1.90;0.53;;;;;;;9.60;60.75;100198.63;4994303;28;96907;-51
2023/12/29 05:04:14;;;;;;;1.63;0.57;;;;;;;9.58;60.75;100192.88;4992429;28;97421;-51
2023/12/29 05:06:40;;;;;;;1.63;0.80;;;;;;;9.57;60.85;100189.38;4991720;28;97242;-51
2023/12/29 05:09:06;;;;;;;1.33;0.80;;;;;;;9.60;60.80;100193.13;4994926;28;97070;-51
2023/12/29 05:11:32;;;;;;;1.00;0.50;;;;;;;9.58;60.71;100193.66;4994190;28;96710;-51
2023/12/29 05:13:58;;;;;;;1.10;0.60;;;;;;;9.54;60.81;100206.94;4993773;28;98597;-52
2023/12/29 05:16:23;;;;;;;3.10;0.73;;;;;;;9.51;60.92;100198.97;4994915;28;97147;-51
2023/12/29 05:18:48;;;;;;;2.00;0.70;;;;;;;9.49;61.04;100191.22;4993050;28;97023;-51
2023/12/29 05:21:17;;;;;;;3.13;0.67;;;;;;;9.46;61.33;100189.47;4995377;28;97279;-52
2023/12/29 05:23:44;;;;;;;2.20;0.70;;;;;;;9.47;61.25;100196.50;4994373;28;98660;-51
2023/12/29 05:26:09;;;;;;;1.73;0.70;;;;;;;9.47;61.24;100195.75;4993669;28;96907;-52
2023/12/29 05:28:34;;;;;;;1.20;0.63;;;;;;;9.45;61.38;100199.03;4997529;28;97053;-51
2023/12/29 05:31:03;;;;;;;1.10;0.60;;;;;;;9.46;61.40;100183.94;4994057;28;100007;-51
2023/12/29 05:33:29;;;;;;;1.47;0.80;;;;;;;9.39;61.42;100184.53;4993881;28;96731;-51
2023/12/29 05:35:54;;;;;;;1.13;0.60;;;;;;;9.35;61.66;100192.34;4997416;28;97016;-51
2023/12/29 05:38:19;;;;;;;1.97;0.73;;;;;;;9.34;61.69;100199.16;4993532;28;96755;-52
2023/12/29 05:40:45;;;;;;;1.90;0.60;;;;;;;9.36;61.58;100188.34;4997896;28;96882;-51
2023/12/29 05:43:10;;;;;;;1.40;0.67;;;;;;;9.35;61.58;100188.84;4995559;28;97027;-50
2023/12/29 05:45:35;;;;;;;2.10;1.07;;;;;;;9.30;61.96;100184.88;4997044;28;97751;-51
2023/12/29 05:48:01;;;;;;;1.33;0.60;;;;;;;9.29;61.95;100199.97;4992005;28;97024;-51
2023/12/29 05:50:26;;;;;;;0.90;0.70;;;;;;;9.30;61.85;100196.66;4992885;28;96648;-51
2023/12/29 05:52:51;;;;;;;0.80;0.60;;;;;;;9.29;62.01;100194.44;4992956;28;97325;-52
2023/12/29 05:55:18;;;;;;;1.50;0.73;;;;;;;9.30;61.99;100201.44;4994384;28;97308;-50
2023/12/29 05:57:44;;;;;;;2.63;0.67;;;;;;;9.32;61.97;100200.94;4991156;28;96751;-51
2023/12/29 06:00:14;;;;;;;2.17;0.67;;;;;;;9.30;62.10;100201.44;4994350;28;97202;-51
2023/12/29 06:02:42;;;;;;;0.60;0.50;;;;;;;9.28;62.14;100201.97;4993904;28;97392;-52
2023/12/29 06:05:12;;;;;;;1.10;0.57;;;;;;;9.23;62.35;100207.56;4992785;28;97309;-51
2023/12/29 06:07:38;;;;;;;1.27;0.53;;;;;;;9.24;62.36;100201.50;4995843;28;96833;-51
2023/12/29 06:10:04;;;;;;;1.83;0.73;;;;;;;9.28;62.23;100201.97;4993500;28;96666;-52
2023/12/29 06:12:29;;;;;;;5.73;1.00;;;;;;;9.29;62.30;100197.19;4993636;28;99285;-51
2023/12/29 06:14:54;;;;;;;1.03;0.70;;;;;;;9.29;62.40;100203.47;4993125;28;97048;-52
2023/12/29 06:17:20;;;;;;;1.83;0.80;;;;;;;9.28;62.42;100215.00;4994532;28;96602;-51
2023/12/29 06:19:45;;;;;;;1.80;0.80;;;;;;;9.27;62.52;100213.53;4993145;28;96679;-51
2023/12/29 06:22:11;;;;;;;1.43;0.90;;;;;;;9.25;62.51;100216.78;4990818;28;97372;-52
2023/12/29 06:24:37;;;;;;;1.97;0.77;;;;;;;9.21;62.75;100229.41;4994764;28;97288;-51
2023/12/29 06:27:03;;;;;;;2.20;0.80;;;;;;;9.22;62.75;100228.13;4995378;28;96700;-52
2023/12/29 06:29:28;;;;;;;2.30;1.03;;;;;;;9.18;62.68;100230.44;4995226;28;97138;-51
2023/12/29 06:31:54;;;;;;;2.63;0.83;;;;;;;9.22;62.86;100241.94;4991675;28;97272;-51
2023/12/29 06:34:19;;;;;;;2.30;0.93;;;;;;;9.21;62.76;100240.44;4993878;28;96791;-51
2023/12/29 06:36:45;;;;;;;5.40;1.23;;;;;;;9.20;62.67;100239.69;4992792;28;96934;-51
2023/12/29 06:39:10;;;;;;;2.63;1.30;;;;;;;9.19;62.93;100248.47;4991191;28;96954;-51
2023/12/29 06:41:35;;;;;;;1.97;0.90;;;;;;;9.19;62.89;100252.00;4991531;28;97239;-51
2023/12/29 06:44:01;;;;;;;2.40;1.20;;;;;;;9.19;62.88;100243.72;4993130;28;97099;-51
2023/12/29 06:46:26;;;;;;;4.30;1.27;;;;;;;9.21;62.84;100251.50;4997831;28;96681;-52
2023/12/29 06:48:51;;;;;;;7.70;1.47;;;;;;;9.22;62.74;100241.94;4996128;28;97309;-51
2023/12/29 06:51:18;;;;;;;1.73;0.87;;;;;;;9.22;62.76;100236.41;4994997;28;98542;-51
2023/12/29 06:53:45;;;;;;;4.30;1.27;;;;;;;9.23;62.92;100224.84;4993290;28;97074;-51
2023/12/29 06:56:20;;;;;;;4.57;1.47;;;;;;;9.25;62.82;100236.13;4994049;28;96917;-51
2023/12/29 06:58:46;;;;;;;3.30;1.40;;;;;;;9.24;62.73;100239.41;4986861;28;97273;-50
2023/12/29 07:01:12;;;;;;;2.23;0.83;;;;;;;9.25;62.79;100236.13;4993830;28;96852;-51
2023/12/29 07:03:37;;;;;;;2.60;1.17;;;;;;;9.23;62.69;100237.91;4996303;28;97173;-50
2023/12/29 07:06:03;;;;;;;5.90;1.63;;;;;;;9.26;62.61;100245.91;4994689;28;96869;-51
2023/12/29 07:08:29;;;;;;;2.43;1.23;;;;;;;9.26;62.61;100262.47;4996720;28;96832;-51
2023/12/29 07:10:54;;;;;;;2.50;1.27;;;;;;;9.25;62.75;100249.91;4996691;28;97618;-50
2023/12/29 07:13:20;;;;;;;2.70;0.90;;;;;;;9.26;62.71;100254.19;4995980;28;96791;-50
2023/12/29 07:15:47;;;;;;;5.70;1.27;;;;;;;9.20;62.70;100247.97;4997759;28;97353;-51
2023/12/29 07:18:12;;;;;;;2.83;0.90;;;;;;;9.17;62.84;100262.03;4996432;28;97232;-50
2023/12/29 07:20:37;;;;;;;4.87;1.10;;;;;;;9.13;62.76;100262.34;4996630;28;97613;-50
2023/12/29 07:23:03;;;;;;;4.30;1.13;;;;;;;9.09;62.59;100264.63;4995769;28;97783;-50
2023/12/29 07:25:28;;;;;;;1.47;0.80;;;;;;;9.10;62.76;100249.56;4987331;28;96899;-51
2023/12/29 07:27:54;;;;;;;4.67;1.10;;;;;;;9.06;62.49;100257.38;4996516;28;97160;-51
2023/12/29 07:30:19;;;;;;;2.90;0.90;;;;;;;9.06;62.50;100273.19;4995866;28;97207;-51
2023/12/29 07:32:44;;;;;;;2.63;1.13;;;;;;;9.02;62.45;100281.00;4995397;28;96933;-50
2023/12/29 07:35:10;;;;;;;3.63;1.03;;;;;;;9.01;62.51;100271.22;4993065;28;97193;-51
2023/12/29 07:37:35;;;;;;;4.90;1.37;;;;;;;9.05;62.68;100277.22;4995566;28;97398;-50
2023/12/29 07:40:01;;;;;;;5.70;1.50;;;;;;;9.02;62.54;100281.75;4984972;28;96822;-50
2023/12/29 07:42:26;;;;;;;3.53;1.10;;;;;;;9.00;62.72;100281.53;4989869;28;97821;-51
2023/12/29 07:44:52;;;;;;;4.77;1.70;;;;;;;9.00;62.80;100281.53;4997791;28;97764;-51
2023/12/29 07:47:17;;;;;;;3.20;1.00;;;;;;;8.99;62.87;100285.53;4997633;28;97377;-52
2023/12/29 07:49:42;;;;;;;3.70;1.33;;;;;;;8.97;62.92;100290.09;5011661;28;99118;-51
2023/12/29 07:52:08;;;;;;;4.50;1.30;;;;;;;8.97;62.91;100279.78;4991305;28;97170;-52
2023/12/29 07:54:34;;;;;;;4.23;1.20;;;;;;;8.98;62.93;100280.53;4995754;28;97079;-50
2023/12/29 07:56:59;;;;;;;3.23;1.30;;;;;;;8.98;62.85;100283.28;4997953;28;97202;-51
2023/12/29 07:59:24;;;;;;;4.60;1.20;;;;;;;8.96;62.97;100278.28;4995117;28;97547;-50
2023/12/29 08:01:50;;;;;;;1.90;0.93;;;;;;;8.95;63.08;100295.38;4993163;28;98379;-50
2023/12/29 08:04:16;;;;;;;3.23;1.23;;;;;;;8.95;63.11;100289.84;4996218;28;97256;-51
2023/12/29 08:06:41;;;;;;;3.93;1.50;;;;;;;8.96;63.17;100300.38;4995082;28;97025;-50
2023/12/29 08:09:07;;;;;;;5.00;1.30;;;;;;;8.98;63.08;100288.81;4996500;28;97079;-51
2023/12/29 08:11:33;;;;;;;3.40;1.20;;;;;;;8.96;63.13;100292.09;4994355;28;98444;-50
2023/12/29 08:13:58;;;;;;;4.93;1.50;;;;;;;8.96;63.37;100285.81;4993192;28;97177;-50
2023/12/29 08:16:23;;;;;;;6.70;1.50;;;;;;;8.98;63.47;100286.81;4994258;28;96925;-51
2023/12/29 08:18:49;;;;;;;4.23;1.13;;;;;;;9.03;63.27;100293.53;4996123;28;96899;-50
2023/12/29 08:21:21;;;;;;;1.70;1.00;;;;;;;9.00;63.45;100280.75;4993749;28;96951;-51
2023/12/29 08:23:47;;;;;;;2.17;1.17;;;;;;;8.96;63.32;100288.56;4994858;28;96594;-51
2023/12/29 08:26:13;;;;;;;3.07;1.23;;;;;;;8.94;63.50;100278.06;4998661;28;96957;-51
2023/12/29 08:28:39;;;;;;;3.80;1.20;;;;;;;8.97;63.60;100285.28;4994792;28;97760;-51
2023/12/29 08:31:04;;;;;;;1.40;1.00;;;;;;;8.99;63.38;100279.28;4996422;28;98044;-51
2023/12/29 08:33:29;;;;;;;5.07;1.53;;;;;;;9.00;63.48;100275.25;4996437;28;96771;-51
2023/12/29 08:36:00;;;;;;;5.50;1.67;;;;;;;8.99;63.42;100276.53;4994597;28;97155;-50
2023/12/29 08:38:26;;;;;;;4.00;1.43;;;;;;;9.01;63.63;100276.75;4995754;28;97041;-51
2023/12/29 08:40:52;;;;;;;3.33;1.03;;;;;;;9.07;63.64;100269.91;4994014;28;97208;-51
2023/12/29 08:43:21;;;;;;;2.93;1.10;;;;;;;9.12;63.30;100269.09;4993610;28;97084;-50
2023/12/29 08:45:49;;;;;;;3.13;1.70;;;;;;;9.13;63.63;100262.34;4993220;28;97702;-50
2023/12/29 08:48:15;;;;;;;4.90;1.40;;;;;;;9.17;63.58;100242.72;4992432;28;97141;-51
2023/12/29 08:50:42;;;;;;;3.20;1.30;;;;;;;9.20;63.40;100234.19;4996800;28;97090;-51
2023/12/29 08:53:08;;;;;;;3.50;1.13;;;;;;;9.21;63.36;100235.66;4990868;28;97164;-51
2023/12/29 08:55:33;;;;;;;5.13;1.40;;;;;;;9.23;63.47;100227.59;4993420;28;97217;-50
2023/12/29 08:57:58;;;;;;;6.93;1.40;;;;;;;9.30;63.19;100245.59;4990595;28;100787;-51
2023/12/29 09:00:24;;;;;;;2.63;0.90;;;;;;;9.32;63.35;100245.84;4993978;28;97086;-50
2023/12/29 09:02:49;;;;;;;3.97;1.37;;;;;;;9.37;63.18;100249.81;4997395;28;98731;-50
2023/12/29 09:05:14;;;;;;;6.17;1.30;;;;;;;9.42;63.10;100237.97;4997970;28;96825;-51
2023/12/29 09:07:40;;;;;;;2.17;1.03;;;;;;;9.44;63.11;100241.72;4994331;28;98896;-51
2023/12/29 09:10:11;;;;;;;4.50;1.10;;;;;;;9.46;63.15;100239.19;4993417;28;97402;-50
2023/12/29 09:12:38;;;;;;;5.17;1.23;;;;;;;9.48;62.97;100236.63;4994416;28;96967;-50
2023/12/29 09:15:04;;;;;;;3.37;1.27;;;;;;;9.52;62.97;100234.31;4994071;28;96812;-50
2023/12/29 09:17:29;;;;;;;2.63;1.53;;;;;;;9.52;62.99;100236.38;4993963;28;97560;-50
2023/12/29 09:19:54;;;;;;;4.03;1.23;;;;;;;9.56;62.67;100234.09;4995747;28;106642;-51
2023/12/29 09:22:20;;;;;;;9.70;1.33;;;;;;;9.64;62.72;100227.47;4994182;28;96690;-50
2023/12/29 09:24:46;;;;;;;4.50;1.10;;;;;;;9.65;62.58;100225.44;4992662;28;97100;-50
2023/12/29 09:27:11;;;;;;;3.00;1.00;;;;;;;9.65;62.40;100225.44;4994533;28;97730;-50
2023/12/29 09:29:37;;;;;;;5.53;1.63;;;;;;;9.68;62.34;100214.09;4995088;28;96857;-51
2023/12/29 09:32:02;;;;;;;4.83;1.40;;;;;;;9.72;62.43;100222.84;4993152;28;97407;-50
2023/12/29 09:34:28;;;;;;;5.83;1.53;;;;;;;9.75;62.43;100219.03;4993843;28;96851;-51
2023/12/29 09:36:53;;;;;;;3.53;1.43;;;;;;;9.77;62.16;100230.31;4995699;28;97446;-51
2023/12/29 09:39:18;;;;;;;5.50;1.50;;;;;;;9.77;61.83;100213.75;4994441;28;96724;-51
2023/12/29 09:41:47;;;;;;;5.33;1.50;;;;;;;9.79;61.71;100218.72;4993480;28;97295;-51
2023/12/29 09:44:14;;;;;;;5.20;1.30;;;;;;;9.80;61.78;100217.47;4992055;28;97414;-51
2023/12/29 09:46:42;;;;;;;4.67;1.27;;;;;;;9.86;61.90;100226.44;4984667;28;97312;-50
2023/12/29 09:49:08;;;;;;;3.13;1.43;;;;;;;9.93;61.59;100234.16;4995199;28;99237;-50
2023/12/29 09:51:35;;;;;;;3.47;1.53;;;;;;;9.94;61.58;100225.31;4992681;28;97049;-50
2023/12/29 09:54:02;;;;;;;7.13;1.20;;;;;;;10.00;61.52;100226.00;4992073;28;96840;-50
2023/12/29 09:56:28;;;;;;;5.57;1.20;;;;;;;10.01;61.46;100238.56;4993735;28;98234;-50
2023/12/29 09:58:54;;;;;;;3.67;1.10;;;;;;;10.06;61.50;100234.22;4993248;28;96954;-51
2023/12/29 10:01:22;;;;;;;4.10;1.30;;;;;;;10.10;61.27;100233.91;4994504;28;97082;-50
2023/12/29 10:03:48;;;;;;;8.17;1.63;;;;;;;10.16;61.00;100245.63;4992383;28;97088;-51
2023/12/29 10:06:19;;;;;;;8.13;1.10;;;;;;;10.21;61.08;100248.34;4994820;28;97239;-51
2023/12/29 10:08:46;;;;;;;6.30;1.40;;;;;;;10.20;60.63;100243.31;4995333;28;97073;-50
2023/12/29 10:11:13;;;;;;;1.73;1.17;;;;;;;10.26;60.73;100239.19;4993895;28;97098;-50
2023/12/29 10:13:41;;;;;;;9.77;1.30;;;;;;;10.30;60.57;100236.16;4992275;28;97436;-51
2023/12/29 10:16:13;;;;;;;6.67;1.47;;;;;;;10.34;60.60;100233.81;4990776;28;96834;-50
2023/12/29 10:18:57;;;;;;;1.00;0.63;;;;;;;10.41;60.15;100241.53;4991901;28;97682;-50
2023/12/29 10:21:44;;;;;;;4.40;0.87;;;;;;;10.43;59.66;100238.97;4992887;28;96889;-51
2023/12/29 10:24:12;;;;;;;3.40;0.90;;;;;;;10.45;60.28;100245.47;4993402;28;96797;-51
2023/12/29 10:26:39;;;;;;;2.03;0.90;;;;;;;10.44;60.16;100251.53;4996357;28;97861;-50
2023/12/29 10:29:05;;;;;;;3.23;0.93;;;;;;;10.38;60.04;100248.09;4994933;28;97594;-51
2023/12/29 10:31:30;;;;;;;1.90;0.73;;;;;;;10.32;60.06;100241.91;4993852;28;96697;-51
2023/12/29 10:34:28;;;;;;;3.63;0.90;;;;;;;10.24;59.58;100249.31;4995247;28;98258;-50
2023/12/29 10:36:53;;;;;;;0.90;0.50;;;;;;;10.20;60.15;100255.13;4994455;28;97982;-50
2023/12/29 10:39:19;;;;;;;1.10;0.40;;;;;;;10.22;60.40;100251.81;4992840;28;97408;-50
2023/12/29 10:41:44;;;;;;;1.90;0.70;;;;;;;10.19;60.28;100247.38;4993418;28;96773;-50
2023/12/29 10:44:09;;;;;;;1.27;0.80;;;;;;;10.17;60.37;100245.13;4992561;28;96906;-50
2023/12/29 10:46:35;;;;;;;0.73;0.50;;;;;;;10.16;60.46;100245.63;4992368;28;97747;-50
2023/12/29 10:49:13;;;;;;;2.33;0.67;;;;;;;10.11;59.94;100246.47;4992281;28;100052;-52
2023/12/29 10:51:40;;;;;;;2.53;0.93;;;;;;;10.04;60.48;100242.28;4991701;28;97094;-50
2023/12/29 10:54:06;;;;;;;2.40;0.87;;;;;;;10.01;60.48;100249.59;4984508;28;97813;-51
2023/12/29 10:56:34;;;;;;;1.63;0.57;;;;;;;10.00;60.58;100259.16;4993609;28;98446;-50
2023/12/29 10:59:04;;;;;;;0.90;0.60;;;;;;;9.93;60.86;100243.16;4994876;28;97592;-50
2023/12/29 11:01:33;;;;;;;2.43;0.90;;;;;;;9.92;60.94;100252.72;4991017;28;96996;-50
2023/12/29 11:04:06;;;;;;;1.20;0.63;;;;;;;9.93;61.04;100262.50;4992845;28;96872;-50
2023/12/29 11:06:44;;;;;;;2.60;0.60;;;;;;;9.89;61.57;100253.00;4993844;28;97895;-50
2023/12/29 11:09:11;;;;;;;2.50;0.67;;;;;;;9.91;61.31;100245.69;4993744;28;97371;-50
2023/12/29 11:11:37;;;;;;;1.23;0.70;;;;;;;9.93;61.33;100248.69;4992694;28;97346;-51
2023/12/29 11:14:03;;;;;;;1.13;0.50;;;;;;;9.92;61.32;100238.91;4995293;28;96879;-51
2023/12/29 11:16:29;;;;;;;1.00;0.40;;;;;;;9.93;61.42;100225.84;4993503;28;97297;-50
2023/12/29 11:18:57;;;;;;;0.70;0.43;;;;;;;9.92;61.51;100227.88;4993230;28;98398;-50
2023/12/29 11:21:25;;;;;;;1.03;0.47;;;;;;;9.97;61.45;100229.06;4992659;28;97097;-50
2023/12/29 11:23:50;;;;;;;0.70;0.47;;;;;;;10.00;61.38;100225.22;4990884;28;97139;-50
2023/12/29 11:26:17;;;;;;;1.00;0.40;;;;;;;10.03;61.45;100221.44;4993389;28;97339;-51